createdAt,value
2018-07-23T00:04:43.196Z,16.50
2018-07-23T00:10:12.459Z,16.50
2018-07-23T00:15:42.494Z,16.50
2018-07-23T00:21:11.770Z,16.50
2018-07-23T00:26:41.009Z,16.50
2018-07-23T00:32:10.513Z,16.50
2018-07-23T00:37:39.726Z,16.50
2018-07-23T00:43:09.099Z,16.50
2018-07-23T00:48:38.411Z,16.50
2018-07-23T00:54:07.681Z,16.40
2018-07-23T00:59:37.048Z,16.40
2018-07-23T01:05:06.406Z,16.40
2018-07-23T01:10:35.824Z,16.30
2018-07-23T01:16:04.805Z,16.30
2018-07-23T01:21:34.447Z,16.20
2018-07-23T01:27:03.765Z,16.20
2018-07-23T01:32:32.999Z,16.10
2018-07-23T01:38:02.284Z,16.10
2018-07-23T01:43:31.544Z,16.00
2018-07-23T01:49:00.844Z,16.00
2018-07-23T01:54:30.234Z,15.90
2018-07-23T01:59:59.506Z,15.90
2018-07-23T02:05:28.830Z,15.90
2018-07-23T02:10:58.120Z,15.90
2018-07-23T02:16:28.483Z,15.90
2018-07-23T02:21:57.755Z,15.90
2018-07-23T02:27:26.987Z,15.90
2018-07-23T02:32:56.235Z,15.90
2018-07-23T02:38:25.539Z,15.80
2018-07-23T02:43:54.862Z,15.80
2018-07-23T02:49:24.171Z,15.80
2018-07-23T02:54:53.517Z,15.80
2018-07-23T03:00:22.902Z,15.80
2018-07-23T03:05:52.281Z,15.80
2018-07-23T03:11:21.788Z,15.80
2018-07-23T03:16:52.212Z,15.90
2018-07-23T03:22:21.526Z,15.90
2018-07-23T03:27:50.990Z,15.90
2018-07-23T03:33:20.280Z,15.90
2018-07-23T03:38:49.578Z,15.90
2018-07-23T03:44:18.949Z,15.90
2018-07-23T03:49:48.325Z,15.90
2018-07-23T03:55:18.230Z,15.90
2018-07-23T04:00:47.531Z,15.90
2018-07-23T04:06:16.866Z,15.90
2018-07-23T04:11:46.792Z,16.00
2018-07-23T04:17:16.062Z,16.00
2018-07-23T04:22:45.509Z,16.00
2018-07-23T04:28:14.742Z,16.10
2018-07-23T04:33:44.046Z,16.10
2018-07-23T04:39:13.357Z,16.20
2018-07-23T04:44:42.601Z,16.30
2018-07-23T04:50:11.825Z,16.30
2018-07-23T04:55:41.114Z,16.40
2018-07-23T05:01:10.335Z,16.50
2018-07-23T05:06:39.657Z,16.60
2018-07-23T05:12:08.880Z,16.60
2018-07-23T05:17:38.124Z,16.70
2018-07-23T05:23:07.432Z,16.70
2018-07-23T05:28:36.659Z,16.70
2018-07-23T05:34:05.892Z,16.80
2018-07-23T05:39:35.231Z,16.80
2018-07-23T05:45:04.955Z,16.90
2018-07-23T05:50:34.169Z,16.90
2018-07-23T05:56:03.506Z,17.00
2018-07-23T06:01:32.807Z,17.10
2018-07-23T06:07:02.257Z,17.30
2018-07-23T06:12:31.339Z,17.50
2018-07-23T06:18:00.611Z,17.70
2018-07-23T06:23:29.847Z,17.80
2018-07-23T06:28:59.257Z,17.90
2018-07-23T06:34:28.581Z,18.00
2018-07-23T06:39:57.913Z,18.10
2018-07-23T06:45:27.283Z,18.20
2018-07-23T06:50:56.521Z,18.20
2018-07-23T06:56:25.892Z,18.30
2018-07-23T07:01:55.218Z,18.30
2018-07-23T07:07:24.548Z,18.40
2018-07-23T07:12:54.346Z,18.50
2018-07-23T07:18:23.644Z,18.50
2018-07-23T07:23:53.027Z,18.50
2018-07-23T07:29:22.343Z,18.60
2018-07-23T07:34:51.718Z,18.70
2018-07-23T07:40:21.081Z,18.90
2018-07-23T07:45:50.451Z,19.20
2018-07-23T07:51:19.879Z,19.30
2018-07-23T07:56:49.280Z,19.40
2018-07-23T08:02:18.579Z,19.50
2018-07-23T08:07:47.935Z,19.60
2018-07-23T08:13:17.324Z,19.80
2018-07-23T08:18:46.708Z,19.90
2018-07-23T08:24:16.012Z,19.90
2018-07-23T08:29:45.255Z,20.00
2018-07-23T08:35:14.480Z,20.00
2018-07-23T08:40:43.803Z,20.10
2018-07-23T08:46:13.019Z,20.10
2018-07-23T08:51:42.276Z,20.00
2018-07-23T08:57:13.651Z,20.00
2018-07-23T09:02:42.915Z,20.00
2018-07-23T09:08:12.482Z,20.00
2018-07-23T09:13:41.669Z,20.00
2018-07-23T09:19:11.027Z,20.00
2018-07-23T09:24:40.228Z,20.00
2018-07-23T09:30:14.717Z,20.10
2018-07-23T09:35:43.884Z,20.10
2018-07-23T09:41:13.201Z,20.20
2018-07-23T09:46:42.449Z,20.30
2018-07-23T09:52:11.674Z,20.40
2018-07-23T09:57:40.941Z,20.60
2018-07-23T10:03:10.275Z,20.80
2018-07-23T10:08:39.371Z,21.10
2018-07-23T10:14:09.024Z,21.60
2018-07-23T10:19:38.265Z,22.10
2018-07-23T10:25:07.534Z,22.60
2018-07-23T10:30:36.788Z,22.70
2018-07-23T10:36:06.025Z,23.20
2018-07-23T10:41:35.239Z,23.10
2018-07-23T10:47:04.508Z,23.30
2018-07-23T10:52:33.688Z,23.60
2018-07-23T10:58:03.019Z,23.50
2018-07-23T11:03:32.247Z,23.90
2018-07-23T11:09:01.593Z,24.20
2018-07-23T11:14:30.845Z,24.20
2018-07-23T11:20:00.102Z,24.30
2018-07-23T11:25:43.491Z,24.40
2018-07-23T11:30:58.829Z,24.30
2018-07-23T11:36:28.036Z,24.20
2018-07-23T11:41:57.258Z,24.60
2018-07-23T11:47:26.496Z,25.10
2018-07-23T11:52:55.742Z,25.50
2018-07-23T11:58:25.388Z,25.90
2018-07-23T12:03:54.726Z,25.80
2018-07-23T12:09:24.120Z,25.50
2018-07-23T12:14:53.385Z,25.50
2018-07-23T12:20:22.707Z,25.30
2018-07-23T12:25:52.036Z,24.90
2018-07-23T12:31:21.458Z,24.70
2018-07-23T12:36:50.855Z,24.40
2018-07-23T12:42:20.604Z,24.30
2018-07-23T12:47:49.998Z,24.60
2018-07-23T12:53:19.402Z,25.00
2018-07-23T12:58:49.060Z,25.50
2018-07-23T13:04:20.511Z,25.90
2018-07-23T13:09:50.306Z,26.10
2018-07-23T13:15:20.814Z,26.40
2018-07-23T13:20:50.348Z,26.50
2018-07-23T13:26:20.320Z,26.00
2018-07-23T13:31:50.047Z,25.40
2018-07-23T13:37:19.628Z,24.90
2018-07-23T13:42:49.528Z,24.70
2018-07-23T13:48:18.980Z,24.50
2018-07-23T13:53:48.523Z,24.60
2018-07-23T13:59:17.925Z,24.70
2018-07-23T14:04:47.557Z,24.90
2018-07-23T14:10:17.055Z,25.00
2018-07-23T14:15:46.666Z,24.90
2018-07-23T14:21:15.941Z,24.40
2018-07-23T14:26:45.333Z,24.00
2018-07-23T14:32:14.622Z,23.70
2018-07-23T14:37:43.966Z,24.00
2018-07-23T14:43:13.338Z,24.20
2018-07-23T14:48:42.628Z,24.00
2018-07-23T14:54:12.926Z,24.20
2018-07-23T14:59:42.176Z,24.70
2018-07-23T15:05:11.428Z,24.50
2018-07-23T15:10:40.712Z,24.50
2018-07-23T15:16:09.969Z,24.70
2018-07-23T15:21:39.201Z,24.70
2018-07-23T15:27:08.293Z,24.90
2018-07-23T15:32:37.598Z,24.90
2018-07-23T15:38:06.867Z,24.80
2018-07-23T15:43:36.339Z,24.80
2018-07-23T15:49:05.584Z,24.80
2018-07-23T15:54:35.261Z,24.90
2018-07-23T16:00:05.576Z,24.70
2018-07-23T16:05:34.923Z,24.70
2018-07-23T16:11:04.177Z,24.70
2018-07-23T16:16:33.792Z,24.50
2018-07-23T16:22:03.480Z,24.50
2018-07-23T16:27:32.787Z,24.60
2018-07-23T16:33:02.055Z,24.50
2018-07-23T16:38:31.295Z,24.40
2018-07-23T16:44:00.548Z,24.40
2018-07-23T16:49:29.924Z,24.30
2018-07-23T16:54:59.182Z,24.20
2018-07-23T17:00:29.018Z,24.10
2018-07-23T17:05:58.660Z,24.10
2018-07-23T17:11:28.058Z,24.20
2018-07-23T17:16:57.440Z,24.20
2018-07-23T17:22:28.090Z,24.20
2018-07-23T17:27:57.462Z,24.00
2018-07-23T17:33:26.684Z,23.90
2018-07-23T17:38:56.273Z,23.70
2018-07-23T17:44:25.458Z,23.60
2018-07-23T17:49:55.078Z,23.40
2018-07-23T17:55:24.347Z,23.30
2018-07-23T18:00:53.618Z,23.20
2018-07-23T18:06:23.151Z,22.70
2018-07-23T18:11:56.502Z,22.20
2018-07-23T18:17:25.901Z,21.70
2018-07-23T18:22:55.156Z,21.40
2018-07-23T18:28:24.503Z,21.10
2018-07-23T18:33:53.886Z,20.80
2018-07-23T18:39:23.237Z,20.50
2018-07-23T18:44:53.581Z,20.30
2018-07-23T18:50:23.021Z,20.10
2018-07-23T18:55:52.516Z,20.00
2018-07-23T19:01:21.961Z,19.80
2018-07-23T19:06:51.649Z,19.70
2018-07-23T19:12:21.161Z,19.70
2018-07-23T19:17:50.628Z,19.60
2018-07-23T19:23:21.036Z,19.50
2018-07-23T19:28:50.392Z,19.40
2018-07-23T19:34:19.862Z,19.30
2018-07-23T19:39:49.202Z,19.20
2018-07-23T19:45:18.531Z,19.10
2018-07-23T19:50:48.012Z,19.10
2018-07-23T19:56:17.299Z,19.00
2018-07-23T20:01:46.795Z,18.90
2018-07-23T20:07:16.073Z,18.80
2018-07-23T20:12:45.323Z,18.60
2018-07-23T20:18:14.625Z,18.50
2018-07-23T20:23:44.375Z,18.30
2018-07-23T20:29:13.762Z,18.20
2018-07-23T20:34:43.091Z,18.10
2018-07-23T20:40:12.462Z,18.00
2018-07-23T20:45:41.715Z,17.90
2018-07-23T20:51:11.175Z,17.80
2018-07-23T20:56:40.511Z,17.80
2018-07-23T21:02:09.850Z,17.80
2018-07-23T21:07:39.119Z,17.70
2018-07-23T21:13:08.448Z,17.70
2018-07-23T21:18:37.685Z,17.70
2018-07-23T21:24:06.998Z,17.70
2018-07-23T21:29:36.345Z,17.70
2018-07-23T21:35:05.997Z,17.60
2018-07-23T21:40:35.356Z,17.60
2018-07-23T21:46:04.895Z,17.60
2018-07-23T21:51:34.292Z,17.60
2018-07-23T21:57:03.716Z,17.60
2018-07-23T22:02:33.463Z,17.60
2018-07-23T22:08:02.780Z,17.60
2018-07-23T22:13:32.015Z,17.60
2018-07-23T22:19:01.486Z,17.90
2018-07-23T22:24:30.790Z,17.80
2018-07-23T22:30:00.029Z,17.70
2018-07-23T22:35:29.218Z,17.70
2018-07-23T22:40:58.531Z,17.60
2018-07-23T22:46:27.782Z,17.60
2018-07-23T22:51:57.079Z,17.60
2018-07-23T22:57:26.349Z,17.50
2018-07-23T23:02:55.817Z,17.50
2018-07-23T23:08:25.169Z,17.50
2018-07-23T23:13:54.527Z,17.40
2018-07-23T23:19:23.937Z,17.30
2018-07-23T23:24:53.268Z,17.30
2018-07-23T23:30:22.671Z,17.20
2018-07-23T23:35:52.077Z,17.20
2018-07-23T23:41:21.500Z,17.10
2018-07-23T23:46:50.841Z,17.10
2018-07-23T23:52:20.180Z,17.00
2018-07-23T23:57:49.531Z,16.90
